createdAt,value
2019-04-04T00:00:58.887Z,86.78
2019-04-04T00:03:28.642Z,87.27
2019-04-04T00:05:57.790Z,87.97
2019-04-04T00:08:26.815Z,87.87
2019-04-04T00:10:55.905Z,88.17
2019-04-04T00:13:24.925Z,88.46
2019-04-04T00:15:53.954Z,88.25
2019-04-04T00:18:23.378Z,87.93
2019-04-04T00:20:52.378Z,87.01
2019-04-04T00:23:21.425Z,86.78
2019-04-04T00:25:50.419Z,86.89
2019-04-04T00:28:19.495Z,86.99
2019-04-04T00:30:48.963Z,87.73
2019-04-04T00:33:18.287Z,86.67
2019-04-04T00:35:47.689Z,87.07
2019-04-04T00:38:17.100Z,87.66
2019-04-04T00:40:46.123Z,87.22
2019-04-04T00:43:15.115Z,86.81
2019-04-04T00:45:44.492Z,86.53
2019-04-04T00:48:13.796Z,88.61
2019-04-04T00:50:42.790Z,90.07
2019-04-04T00:53:12.366Z,90.44
2019-04-04T00:55:41.561Z,91.09
2019-04-04T00:58:10.897Z,91.84
2019-04-04T01:00:40.935Z,92.04
2019-04-04T01:03:09.958Z,90.71
2019-04-04T01:05:39.005Z,90.59
2019-04-04T01:08:08.020Z,90.70
2019-04-04T01:10:37.079Z,90.96
2019-04-04T01:13:06.705Z,91.62
2019-04-04T01:15:35.807Z,92.30
2019-04-04T01:18:06.061Z,92.94
2019-04-04T01:20:35.745Z,92.91
2019-04-04T01:23:05.095Z,91.63
2019-04-04T01:25:34.439Z,91.17
2019-04-04T01:28:03.737Z,91.09
2019-04-04T01:30:32.765Z,91.79
2019-04-04T01:33:03.698Z,92.64
2019-04-04T01:35:32.999Z,92.91
2019-04-04T01:38:02.027Z,93.38
2019-04-04T01:40:33.077Z,92.40
2019-04-04T01:43:02.132Z,90.84
2019-04-04T01:45:31.110Z,90.41
2019-04-04T01:48:00.427Z,91.31
2019-04-04T01:50:29.437Z,92.07
2019-04-04T01:52:59.257Z,91.75
2019-04-04T01:55:28.953Z,92.25
2019-04-04T01:57:57.993Z,93.00
2019-04-04T02:00:27.399Z,93.81
2019-04-04T02:02:56.456Z,93.93
2019-04-04T02:05:27.080Z,94.35
2019-04-04T02:07:56.588Z,94.35
2019-04-04T02:10:25.847Z,93.96
2019-04-04T02:12:55.177Z,93.86
2019-04-04T02:15:24.201Z,93.88
2019-04-04T02:17:53.498Z,93.15
2019-04-04T02:20:22.580Z,92.77
2019-04-04T02:22:51.679Z,92.86
2019-04-04T02:25:20.717Z,92.48
2019-04-04T02:27:49.756Z,92.30
2019-04-04T02:30:18.758Z,91.89
2019-04-04T02:32:48.129Z,91.65
2019-04-04T02:35:17.191Z,91.93
2019-04-04T02:37:46.523Z,92.28
2019-04-04T02:40:15.789Z,92.56
2019-04-04T02:42:45.152Z,91.99
2019-04-04T02:45:14.183Z,92.08
2019-04-04T02:47:43.226Z,91.01
2019-04-04T02:50:12.557Z,91.15
2019-04-04T02:52:45.818Z,91.08
2019-04-04T02:55:13.020Z,91.46
2019-04-04T02:57:42.515Z,90.67
2019-04-04T03:00:12.014Z,90.77
2019-04-04T03:02:41.030Z,91.17
2019-04-04T03:05:12.812Z,91.66
2019-04-04T03:07:41.784Z,92.30
2019-04-04T03:10:15.148Z,91.52
2019-04-04T03:12:42.206Z,91.50
2019-04-04T03:15:11.621Z,92.00
2019-04-04T03:17:41.194Z,91.99
2019-04-04T03:20:10.735Z,92.49
2019-04-04T03:22:39.758Z,92.96
2019-04-04T03:25:08.833Z,92.98
2019-04-04T03:27:37.840Z,92.97
2019-04-04T03:30:13.211Z,93.30
2019-04-04T03:32:38.277Z,93.34
2019-04-04T03:35:08.817Z,93.33
2019-04-04T03:37:40.352Z,93.53
2019-04-04T03:40:08.782Z,94.05
2019-04-04T03:42:37.798Z,94.22
2019-04-04T03:45:07.485Z,93.13
2019-04-04T03:47:36.518Z,92.57
2019-04-04T03:50:05.928Z,93.10
2019-04-04T03:52:34.942Z,94.06
2019-04-04T03:55:04.492Z,94.65
2019-04-04T03:57:33.525Z,95.27
2019-04-04T04:00:05.845Z,95.56
2019-04-04T04:02:33.303Z,95.23
2019-04-04T04:05:02.427Z,94.79
2019-04-04T04:07:31.481Z,94.98
2019-04-04T04:10:00.841Z,95.30
2019-04-04T04:12:29.866Z,95.68
2019-04-04T04:14:58.866Z,96.28
2019-04-04T04:17:27.884Z,96.70
2019-04-04T04:19:56.933Z,97.01
2019-04-04T04:22:25.974Z,97.20
2019-04-04T04:24:54.979Z,97.38
2019-04-04T04:27:24.041Z,97.36
2019-04-04T04:29:53.072Z,97.17
2019-04-04T04:32:22.795Z,96.79
2019-04-04T04:34:51.964Z,96.28
2019-04-04T04:37:21.105Z,96.00
2019-04-04T04:39:50.490Z,96.23
2019-04-04T04:42:21.274Z,96.51
2019-04-04T04:44:50.202Z,96.95
2019-04-04T04:47:22.950Z,97.31
2019-04-04T04:49:50.266Z,97.36
2019-04-04T04:52:19.670Z,97.38
2019-04-04T04:54:48.951Z,97.24
2019-04-04T04:57:29.419Z,95.87
2019-04-04T04:59:49.080Z,95.71
2019-04-04T05:02:18.136Z,95.72
2019-04-04T05:04:47.177Z,95.81
2019-04-04T05:07:16.231Z,95.76
2019-04-04T05:09:45.297Z,95.41
2019-04-04T05:12:14.353Z,95.20
2019-04-04T05:14:43.389Z,95.51
2019-04-04T05:17:12.437Z,95.98
2019-04-04T05:19:41.957Z,96.27
2019-04-04T05:22:11.004Z,96.56
2019-04-04T05:24:40.416Z,96.83
2019-04-04T05:27:09.533Z,96.97
2019-04-04T05:29:40.819Z,96.53
2019-04-04T05:32:10.030Z,96.48
2019-04-04T05:34:39.048Z,96.53
2019-04-04T05:37:08.259Z,96.67
2019-04-04T05:39:37.725Z,97.01
2019-04-04T05:42:06.838Z,97.05
2019-04-04T05:44:35.922Z,96.72
2019-04-04T05:47:04.954Z,96.32
2019-04-04T05:49:33.928Z,96.35
2019-04-04T05:52:03.017Z,96.83
2019-04-04T05:54:33.186Z,97.19
2019-04-04T05:57:03.412Z,97.09
2019-04-04T05:59:32.505Z,96.64
2019-04-04T06:02:01.559Z,96.30
2019-04-04T06:04:31.134Z,96.42
2019-04-04T06:07:03.986Z,96.62
2019-04-04T06:09:31.395Z,97.14
2019-04-04T06:12:00.635Z,97.47
2019-04-04T06:14:30.680Z,97.84
2019-04-04T06:16:59.767Z,98.10
2019-04-04T06:19:29.084Z,98.19
2019-04-04T06:21:58.117Z,98.33
2019-04-04T06:24:27.954Z,98.55
2019-04-04T06:26:57.190Z,98.84
2019-04-04T06:29:26.234Z,99.26
2019-04-04T06:31:55.317Z,99.43
2019-04-04T06:34:24.336Z,99.46
2019-04-04T06:36:53.411Z,99.72
2019-04-04T06:39:23.017Z,99.91
2019-04-04T06:41:53.552Z,99.99
2019-04-04T06:44:22.643Z,100.00
2019-04-04T06:46:53.500Z,99.99
2019-04-04T06:49:22.772Z,99.50
2019-04-04T06:51:51.803Z,98.91
2019-04-04T06:54:21.153Z,98.69
2019-04-04T06:56:52.764Z,97.99
2019-04-04T06:59:21.829Z,97.78
2019-04-04T07:01:52.042Z,97.57
2019-04-04T07:04:21.924Z,98.08
2019-04-04T07:06:51.262Z,98.43
2019-04-04T07:09:20.285Z,98.84
2019-04-04T07:11:49.639Z,99.25
2019-04-04T07:14:18.672Z,99.29
2019-04-04T07:16:48.148Z,99.25
2019-04-04T07:19:17.155Z,98.26
2019-04-04T07:21:46.616Z,97.31
2019-04-04T07:24:15.910Z,97.29
2019-04-04T07:26:45.540Z,97.26
2019-04-04T07:29:15.458Z,97.07
2019-04-04T07:31:44.493Z,94.72
2019-04-04T07:34:15.070Z,93.55
2019-04-04T07:36:44.401Z,94.27
2019-04-04T07:39:14.458Z,95.20
2019-04-04T07:41:44.908Z,94.84
2019-04-04T07:44:14.592Z,95.00
2019-04-04T07:46:45.642Z,94.23
2019-04-04T07:49:14.413Z,93.51
2019-04-04T07:51:43.438Z,93.43
2019-04-04T07:54:12.436Z,93.76
2019-04-04T07:56:43.069Z,92.61
2019-04-04T07:59:12.623Z,93.28
2019-04-04T08:01:51.117Z,92.57
2019-04-04T08:04:12.809Z,92.19
2019-04-04T08:06:41.848Z,92.16
2019-04-04T08:09:10.882Z,91.32
2019-04-04T08:11:39.912Z,90.75
2019-04-04T08:14:09.033Z,89.99
2019-04-04T08:16:38.097Z,89.06
2019-04-04T08:19:07.142Z,88.29
2019-04-04T08:21:36.145Z,88.92
2019-04-04T08:24:05.550Z,83.79
2019-04-04T08:26:34.574Z,82.44
2019-04-04T08:29:03.623Z,82.40
2019-04-04T08:31:32.682Z,82.80
2019-04-04T08:34:02.097Z,82.60
2019-04-04T08:36:31.108Z,81.02
2019-04-04T08:39:00.778Z,77.69
2019-04-04T08:41:29.860Z,78.84
2019-04-04T08:43:58.950Z,77.41
2019-04-04T08:46:28.004Z,76.82
2019-04-04T08:48:57.374Z,74.48
2019-04-04T08:51:26.777Z,76.35
2019-04-04T08:53:55.807Z,73.32
2019-04-04T08:56:25.171Z,65.76
2019-04-04T08:58:54.264Z,61.95
2019-04-04T09:01:23.970Z,58.10
2019-04-04T09:03:52.973Z,51.10
2019-04-04T09:06:21.996Z,49.91
2019-04-04T09:08:51.088Z,50.42
2019-04-04T09:11:20.140Z,51.37
2019-04-04T09:13:49.206Z,51.92
2019-04-04T09:16:18.237Z,52.66
2019-04-04T09:18:47.320Z,49.36
2019-04-04T09:21:16.794Z,48.54
2019-04-04T09:23:45.850Z,52.72
2019-04-04T09:26:15.194Z,52.14
2019-04-04T09:28:44.206Z,50.54
2019-04-04T09:31:13.228Z,46.97
2019-04-04T09:33:42.582Z,47.34
2019-04-04T09:36:12.056Z,48.57
2019-04-04T09:38:41.444Z,46.93
2019-04-04T09:41:10.455Z,43.67
2019-04-04T09:43:39.488Z,42.44
2019-04-04T09:46:08.531Z,42.44
2019-04-04T09:48:37.680Z,42.53
2019-04-04T09:51:07.358Z,40.56
2019-04-04T09:53:52.085Z,42.62
2019-04-04T09:56:07.488Z,42.96
2019-04-04T09:58:36.872Z,42.24
2019-04-04T10:01:06.778Z,41.42
2019-04-04T10:03:36.133Z,43.91
2019-04-04T10:06:06.300Z,44.93
2019-04-04T10:08:38.578Z,45.37
2019-04-04T10:11:06.076Z,44.36
2019-04-04T10:13:35.125Z,43.30
2019-04-04T10:16:04.186Z,41.34
2019-04-04T10:18:33.230Z,43.72
2019-04-04T10:21:11.770Z,44.44
2019-04-04T10:23:33.840Z,44.99
2019-04-04T10:26:03.169Z,46.89
2019-04-04T10:28:32.497Z,48.69
2019-04-04T10:31:01.484Z,50.87
2019-04-04T10:33:30.571Z,47.54
2019-04-04T10:35:59.674Z,42.68
2019-04-04T10:38:29.063Z,40.42
2019-04-04T10:40:58.167Z,42.61
2019-04-04T10:43:27.618Z,42.74
2019-04-04T10:45:56.606Z,43.70
2019-04-04T10:48:25.706Z,43.06
2019-04-04T10:50:54.743Z,42.85
2019-04-04T10:53:24.146Z,43.70
2019-04-04T10:55:53.200Z,46.35
2019-04-04T10:58:22.267Z,42.38
2019-04-04T11:00:51.317Z,41.75
2019-04-04T11:03:20.431Z,41.00
2019-04-04T11:05:49.451Z,41.88
2019-04-04T11:08:18.466Z,43.71
2019-04-04T11:10:48.361Z,39.94
2019-04-04T11:13:17.813Z,38.22
2019-04-04T11:15:46.830Z,38.44
2019-04-04T11:18:16.126Z,37.79
2019-04-04T11:20:45.631Z,37.66
2019-04-04T11:23:15.067Z,39.03
2019-04-04T11:25:44.471Z,43.04
2019-04-04T11:28:13.844Z,44.84
2019-04-04T11:30:43.162Z,41.46
2019-04-04T11:33:12.331Z,39.83
2019-04-04T11:35:41.845Z,38.75
2019-04-04T11:38:10.900Z,39.50
2019-04-04T11:40:39.942Z,38.91
2019-04-04T11:43:08.980Z,42.05
2019-04-04T11:45:38.075Z,42.65
2019-04-04T11:48:07.150Z,43.52
2019-04-04T11:50:36.210Z,43.93
2019-04-04T11:53:05.714Z,39.93
2019-04-04T11:55:34.779Z,38.87
2019-04-04T11:58:03.862Z,41.27
2019-04-04T12:00:35.895Z,41.96
2019-04-04T12:03:05.092Z,39.89
2019-04-04T12:05:34.522Z,40.63
2019-04-04T12:08:03.684Z,40.03
2019-04-04T12:10:32.704Z,40.55
2019-04-04T12:13:01.724Z,43.38
2019-04-04T12:15:30.783Z,44.77
2019-04-04T12:17:59.777Z,44.87
2019-04-04T12:20:28.793Z,41.43
2019-04-04T12:22:57.882Z,43.57
2019-04-04T12:25:26.933Z,42.55
2019-04-04T12:27:55.976Z,46.22
2019-04-04T12:30:24.972Z,47.06
2019-04-04T12:32:54.349Z,46.36
2019-04-04T12:35:23.729Z,43.93
2019-04-04T12:37:52.803Z,41.83
2019-04-04T12:40:22.136Z,40.94
2019-04-04T12:42:51.751Z,40.82
2019-04-04T12:45:20.754Z,41.70
2019-04-04T12:47:49.761Z,44.45
2019-04-04T12:50:19.543Z,47.61
2019-04-04T12:52:49.315Z,46.54
2019-04-04T12:55:18.377Z,46.34
2019-04-04T12:57:47.434Z,47.70
2019-04-04T13:00:16.448Z,46.77
2019-04-04T13:02:45.463Z,47.46
2019-04-04T13:05:14.567Z,44.38
2019-04-04T13:07:43.977Z,44.93
2019-04-04T13:10:13.575Z,41.83
2019-04-04T13:12:42.616Z,41.34
2019-04-04T13:15:11.882Z,41.61
2019-04-04T13:17:41.473Z,43.23
2019-04-04T13:20:16.626Z,40.04
2019-04-04T13:22:45.778Z,43.09
2019-04-04T13:25:14.801Z,40.78
2019-04-04T13:27:44.110Z,42.80
2019-04-04T13:30:13.355Z,42.55
2019-04-04T13:32:42.845Z,41.81
2019-04-04T13:35:12.986Z,41.30
2019-04-04T13:37:42.030Z,40.35
2019-04-04T13:40:11.064Z,41.98
2019-04-04T13:42:40.125Z,42.50
2019-04-04T13:45:09.589Z,42.18
2019-04-04T13:47:40.302Z,41.66
2019-04-04T13:50:12.379Z,42.32
2019-04-04T13:52:40.636Z,42.12
2019-04-04T13:55:09.641Z,40.63
2019-04-04T13:57:39.560Z,40.60
2019-04-04T14:00:10.835Z,43.33
2019-04-04T14:02:39.885Z,42.71
2019-04-04T14:05:14.125Z,43.33
2019-04-04T14:07:43.728Z,43.50
2019-04-04T14:10:17.058Z,43.00
2019-04-04T14:12:44.520Z,43.74
2019-04-04T14:15:13.786Z,44.16
2019-04-04T14:17:43.931Z,45.29
2019-04-04T14:20:13.217Z,44.31
2019-04-04T14:22:42.248Z,45.07
2019-04-04T14:25:11.371Z,41.84
2019-04-04T14:27:40.399Z,44.19
2019-04-04T14:30:13.736Z,43.84
2019-04-04T14:32:43.044Z,45.10
2019-04-04T14:35:12.862Z,46.86
2019-04-04T14:37:42.236Z,46.36
2019-04-04T14:40:13.080Z,45.48
2019-04-04T14:42:42.881Z,46.06
2019-04-04T14:45:11.917Z,44.03
2019-04-04T14:47:40.964Z,44.90
2019-04-04T14:50:10.313Z,42.77
2019-04-04T14:52:39.845Z,40.33
2019-04-04T14:55:10.528Z,38.87
2019-04-04T14:57:39.586Z,39.22
2019-04-04T15:00:11.061Z,41.50
2019-04-04T15:02:40.093Z,40.72
2019-04-04T15:05:10.540Z,39.42
2019-04-04T15:07:39.546Z,39.76
2019-04-04T15:10:08.573Z,40.73
2019-04-04T15:12:37.593Z,42.31
2019-04-04T15:15:07.669Z,41.72
2019-04-04T15:17:36.749Z,41.74
2019-04-04T15:20:06.992Z,40.71
2019-04-04T15:22:36.009Z,44.15
2019-04-04T15:25:05.689Z,44.69
2019-04-04T15:27:35.061Z,44.06
2019-04-04T15:30:04.711Z,44.47
2019-04-04T15:32:33.789Z,44.87
2019-04-04T15:35:03.510Z,45.45
2019-04-04T15:37:32.584Z,45.82
2019-04-04T15:40:01.667Z,47.77
2019-04-04T15:42:31.025Z,45.54
2019-04-04T15:45:00.075Z,45.54
2019-04-04T15:47:29.420Z,47.62
2019-04-04T15:49:58.431Z,46.12
2019-04-04T15:52:28.225Z,46.12
2019-04-04T15:54:57.643Z,44.69
2019-04-04T15:57:27.271Z,41.17
2019-04-04T15:59:56.669Z,40.18
2019-04-04T16:02:25.665Z,39.77
2019-04-04T16:04:55.018Z,40.68
2019-04-04T16:07:24.450Z,39.70
2019-04-04T16:09:53.511Z,40.06
2019-04-04T16:12:22.591Z,41.83
2019-04-04T16:14:51.637Z,41.21
2019-04-04T16:17:20.762Z,43.38
2019-04-04T16:19:50.384Z,43.35
2019-04-04T16:22:19.442Z,42.87
2019-04-04T16:24:48.501Z,44.65
2019-04-04T16:27:17.543Z,46.76
2019-04-04T16:29:46.860Z,45.57
2019-04-04T16:32:15.868Z,44.93
2019-04-04T16:34:44.862Z,44.17
2019-04-04T16:37:14.241Z,42.63
2019-04-04T16:39:43.600Z,44.68
2019-04-04T16:42:12.658Z,42.84
2019-04-04T16:44:42.044Z,44.10
2019-04-04T16:47:11.218Z,44.34
2019-04-04T16:49:40.241Z,43.18
2019-04-04T16:52:09.262Z,42.78
2019-04-04T16:54:38.677Z,44.28
2019-04-04T16:57:07.715Z,43.69
2019-04-04T16:59:36.787Z,43.49
2019-04-04T17:02:05.864Z,43.77
2019-04-04T17:04:34.895Z,44.11
2019-04-04T17:07:04.309Z,44.41
2019-04-04T17:09:33.867Z,45.47
2019-04-04T17:12:14.449Z,45.47
2019-04-04T17:14:34.005Z,43.70
2019-04-04T17:17:03.462Z,43.70
2019-04-04T17:19:32.563Z,43.47
2019-04-04T17:22:01.582Z,44.69
2019-04-04T17:24:30.901Z,45.32
2019-04-04T17:26:59.961Z,45.50
2019-04-04T17:29:29.040Z,46.79
2019-04-04T17:31:58.267Z,47.49
2019-04-04T17:34:27.333Z,47.48
2019-04-04T17:36:56.744Z,46.13
2019-04-04T17:39:26.387Z,48.73
2019-04-04T17:41:55.725Z,50.29
2019-04-04T17:44:25.078Z,51.16
2019-04-04T17:46:54.403Z,54.97
2019-04-04T17:49:23.921Z,53.93
2019-04-04T17:51:53.638Z,55.57
2019-04-04T17:54:22.688Z,57.56
2019-04-04T17:56:51.723Z,57.62
2019-04-04T17:59:20.775Z,58.80
2019-04-04T18:01:49.823Z,59.67
2019-04-04T18:04:19.218Z,59.73
2019-04-04T18:06:48.330Z,60.00
2019-04-04T18:09:17.444Z,59.95
2019-04-04T18:11:46.941Z,60.04
2019-04-04T18:14:15.996Z,60.55
2019-04-04T18:16:45.179Z,60.92
2019-04-04T18:19:14.262Z,60.88
2019-04-04T18:21:43.341Z,61.67
2019-04-04T18:24:12.420Z,62.03
2019-04-04T18:26:41.495Z,61.50
2019-04-04T18:29:10.642Z,62.30
2019-04-04T18:31:39.949Z,62.09
2019-04-04T18:34:09.085Z,63.41
2019-04-04T18:36:38.530Z,65.04
2019-04-04T18:39:08.672Z,64.99
2019-04-04T18:41:37.991Z,66.35
2019-04-04T18:44:07.426Z,66.92
2019-04-04T18:46:36.837Z,66.40
2019-04-04T18:49:05.893Z,66.27
2019-04-04T18:51:37.581Z,65.46
2019-04-04T18:54:05.831Z,65.88
2019-04-04T18:56:34.849Z,66.27
2019-04-04T18:59:04.836Z,66.44
2019-04-04T19:01:34.214Z,67.25
2019-04-04T19:04:03.218Z,67.42
2019-04-04T19:06:32.490Z,66.83
2019-04-04T19:09:13.992Z,68.54
2019-04-04T19:11:33.004Z,68.56
2019-04-04T19:14:02.417Z,68.70
2019-04-04T19:16:31.707Z,68.58
2019-04-04T19:19:00.787Z,68.00
2019-04-04T19:21:29.930Z,67.46
2019-04-04T19:23:58.924Z,68.42
2019-04-04T19:26:28.255Z,67.80
2019-04-04T19:28:57.286Z,68.26
2019-04-04T19:31:26.355Z,67.63
2019-04-04T19:33:55.407Z,67.80
2019-04-04T19:36:24.452Z,67.00
2019-04-04T19:38:53.465Z,67.71
2019-04-04T19:41:22.667Z,68.41
2019-04-04T19:43:51.789Z,66.71
2019-04-04T19:46:20.880Z,67.43
2019-04-04T19:48:49.889Z,67.42
2019-04-04T19:51:18.879Z,68.15
2019-04-04T19:53:48.132Z,68.42
2019-04-04T19:56:17.426Z,68.53
2019-04-04T19:58:46.460Z,69.44
2019-04-04T20:01:16.203Z,69.42
2019-04-04T20:03:45.272Z,68.81
2019-04-04T20:06:14.490Z,69.56
2019-04-04T20:08:43.864Z,70.14
2019-04-04T20:11:12.892Z,70.30
2019-04-04T20:13:41.964Z,70.21
2019-04-04T20:16:12.337Z,71.35
2019-04-04T20:18:41.920Z,71.65
2019-04-04T20:21:11.136Z,71.09
2019-04-04T20:23:40.234Z,71.05
2019-04-04T20:26:09.838Z,70.53
2019-04-04T20:28:40.187Z,69.64
2019-04-04T20:31:10.416Z,69.67
2019-04-04T20:33:39.556Z,69.57
2019-04-04T20:36:10.650Z,69.56
2019-04-04T20:38:40.493Z,71.78
2019-04-04T20:41:10.307Z,72.70
2019-04-04T20:43:43.590Z,73.26
2019-04-04T20:46:10.629Z,73.83
2019-04-04T20:48:39.697Z,73.93
2019-04-04T20:51:09.219Z,73.68
2019-04-04T20:53:38.607Z,74.25
2019-04-04T20:56:07.774Z,73.11
2019-04-04T20:58:37.296Z,73.36
2019-04-04T21:01:06.419Z,73.67
2019-04-04T21:03:35.754Z,73.32
2019-04-04T21:06:04.873Z,73.56
2019-04-04T21:08:34.206Z,73.92
2019-04-04T21:11:03.316Z,73.65
2019-04-04T21:13:32.767Z,74.29
2019-04-04T21:16:01.840Z,74.87
2019-04-04T21:18:30.933Z,75.17
2019-04-04T21:21:00.063Z,75.22
2019-04-04T21:23:29.201Z,75.72
2019-04-04T21:25:58.599Z,76.05
2019-04-04T21:28:28.106Z,75.35
2019-04-04T21:30:57.299Z,75.31
2019-04-04T21:33:26.616Z,75.21
2019-04-04T21:35:56.016Z,74.81
2019-04-04T21:38:25.081Z,74.81
2019-04-04T21:40:54.179Z,75.38
2019-04-04T21:43:23.239Z,75.15
2019-04-04T21:45:52.328Z,75.43
2019-04-04T21:48:21.389Z,75.55
2019-04-04T21:50:50.449Z,76.32
2019-04-04T21:53:20.132Z,75.82
2019-04-04T21:55:49.200Z,76.29
2019-04-04T21:58:18.258Z,75.89
2019-04-04T22:00:47.321Z,76.40
2019-04-04T22:03:16.433Z,76.51
2019-04-04T22:05:45.604Z,76.32
2019-04-04T22:08:15.179Z,76.62
2019-04-04T22:10:44.392Z,76.11
2019-04-04T22:13:13.873Z,75.65
2019-04-04T22:15:43.345Z,75.87
2019-04-04T22:18:12.501Z,76.24
2019-04-04T22:20:42.031Z,77.01
2019-04-04T22:23:11.089Z,77.08
2019-04-04T22:25:40.191Z,76.77
2019-04-04T22:28:09.268Z,77.23
2019-04-04T22:30:38.341Z,77.30
2019-04-04T22:33:07.414Z,77.19
2019-04-04T22:35:36.915Z,77.60
2019-04-04T22:38:06.107Z,77.96
2019-04-04T22:40:35.219Z,77.95
2019-04-04T22:43:04.751Z,77.95
2019-04-04T22:45:33.891Z,77.88
2019-04-04T22:48:02.988Z,77.88
2019-04-04T22:50:32.038Z,78.13
2019-04-04T22:53:01.160Z,77.89
2019-04-04T22:55:30.916Z,78.38
2019-04-04T22:58:00.399Z,78.15
2019-04-04T23:00:30.099Z,78.16
2019-04-04T23:03:01.505Z,78.68
2019-04-04T23:05:31.117Z,78.70
2019-04-04T23:08:00.741Z,79.46
2019-04-04T23:10:30.793Z,79.09
2019-04-04T23:13:00.539Z,79.72
2019-04-04T23:15:30.244Z,80.11
2019-04-04T23:17:59.865Z,80.00
2019-04-04T23:20:29.951Z,79.80
2019-04-04T23:23:01.305Z,79.06
2019-04-04T23:25:31.099Z,79.31
2019-04-04T23:28:00.769Z,80.39
2019-04-04T23:30:30.437Z,80.36
2019-04-04T23:33:00.393Z,80.16
2019-04-04T23:35:30.336Z,78.44
2019-04-04T23:37:59.936Z,78.62
2019-04-04T23:40:29.256Z,79.06
2019-04-04T23:42:59.111Z,79.54
2019-04-04T23:45:28.937Z,80.08
2019-04-04T23:47:59.025Z,80.34
2019-04-04T23:50:28.408Z,79.78
2019-04-04T23:52:58.457Z,78.66
2019-04-04T23:55:28.119Z,77.87
2019-04-04T23:57:58.181Z,78.50
